createdAt,value
2019-01-06T00:02:23.127Z,94586.62
2019-01-06T00:05:08.733Z,94588.28
2019-01-06T00:07:54.588Z,94571.77
2019-01-06T00:11:00.027Z,94575.27
2019-01-06T00:13:45.769Z,94576.47
2019-01-06T00:16:31.456Z,94570.03
2019-01-06T00:19:18.784Z,94566.08
2019-01-06T00:22:04.458Z,94564.65
2019-01-06T00:24:50.299Z,94574.55
2019-01-06T00:27:39.649Z,94574.55
2019-01-06T00:30:25.433Z,94562.59
2019-01-06T00:33:21.442Z,94562.59
2019-01-06T00:36:07.234Z,94564.56
2019-01-06T00:39:12.439Z,94564.56
2019-01-06T00:42:14.793Z,94556.00
2019-01-06T00:45:16.583Z,94555.16
2019-01-06T00:48:02.469Z,94550.28
2019-01-06T00:51:01.566Z,94551.43
2019-01-06T00:53:47.233Z,94551.43
2019-01-06T00:56:37.216Z,94542.42
2019-01-06T00:59:30.221Z,94538.05
2019-01-06T01:02:19.945Z,94538.05
2019-01-06T01:05:15.972Z,94536.55
2019-01-06T01:08:14.888Z,94532.61
2019-01-06T01:11:07.874Z,94521.83
2019-01-06T01:13:53.137Z,94519.41
2019-01-06T01:16:36.571Z,94519.41
2019-01-06T01:19:29.690Z,94509.61
2019-01-06T01:22:07.438Z,94509.61
2019-01-06T01:24:52.286Z,94508.20
2019-01-06T01:27:45.133Z,94507.19
2019-01-06T01:30:32.502Z,94507.19
2019-01-06T01:33:37.668Z,94500.88
2019-01-06T01:36:36.699Z,94490.59
2019-01-06T01:39:18.954Z,94490.84
2019-01-06T01:41:58.582Z,94490.84
2019-01-06T01:44:48.230Z,94485.50
2019-01-06T01:47:35.178Z,94486.64
2019-01-06T01:50:37.483Z,94472.86
2019-01-06T01:53:23.128Z,94477.00
2019-01-06T01:56:10.297Z,94477.00
2019-01-06T01:59:06.251Z,94476.27
2019-01-06T02:01:52.256Z,94476.27
2019-01-06T02:04:48.257Z,94470.88
2019-01-06T02:07:27.735Z,94465.27
2019-01-06T02:10:14.681Z,94465.27
2019-01-06T02:13:07.857Z,94462.35
2019-01-06T02:15:53.792Z,94462.35
2019-01-06T02:18:52.887Z,94456.94
2019-01-06T02:21:38.931Z,94444.55
2019-01-06T02:24:37.965Z,94444.39
2019-01-06T02:27:25.219Z,94439.48
2019-01-06T02:30:12.303Z,94447.08
2019-01-06T02:33:02.047Z,94425.59
2019-01-06T02:35:57.778Z,94425.59
2019-01-06T02:38:37.575Z,94430.25
2019-01-06T02:41:36.677Z,94427.79
2019-01-06T02:44:29.735Z,94425.44
2019-01-06T02:47:22.754Z,94418.05
2019-01-06T02:50:21.893Z,94425.26
2019-01-06T02:53:08.976Z,94422.20
2019-01-06T02:56:11.081Z,94417.23
2019-01-06T02:59:16.230Z,94417.23
2019-01-06T03:02:02.028Z,94409.95
2019-01-06T03:04:49.149Z,94398.67
2019-01-06T03:07:42.059Z,94403.38
2019-01-06T03:10:31.992Z,94401.49
2019-01-06T03:13:21.762Z,94401.49
2019-01-06T03:16:14.673Z,94394.34
2019-01-06T03:19:04.636Z,94385.07
2019-01-06T03:21:50.526Z,94374.67
2019-01-06T03:24:36.191Z,94374.67
2019-01-06T03:27:26.204Z,94371.28
2019-01-06T03:30:18.860Z,94365.42
2019-01-06T03:33:08.748Z,94359.95
2019-01-06T03:36:11.008Z,94372.80
2019-01-06T03:39:10.554Z,94373.46
2019-01-06T03:42:06.720Z,94367.52
2019-01-06T03:44:52.526Z,94368.27
2019-01-06T03:47:33.125Z,94362.19
2019-01-06T03:50:35.411Z,94355.39
2019-01-06T03:53:25.368Z,94362.97
2019-01-06T03:56:30.382Z,94367.89
2019-01-06T03:59:20.720Z,94366.69
2019-01-06T04:02:06.278Z,94367.32
2019-01-06T04:04:56.287Z,94372.42
2019-01-06T04:07:42.676Z,94365.26
2019-01-06T04:10:28.591Z,94363.55
2019-01-06T04:13:30.770Z,94363.55
2019-01-06T04:16:17.868Z,94357.86
2019-01-06T04:19:10.928Z,94360.87
2019-01-06T04:21:56.597Z,94360.30
2019-01-06T04:24:43.661Z,94360.30
2019-01-06T04:27:36.504Z,94358.80
2019-01-06T04:30:38.945Z,94365.38
2019-01-06T04:33:25.018Z,94359.72
2019-01-06T04:36:09.278Z,94359.53
2019-01-06T04:38:56.496Z,94358.02
2019-01-06T04:41:46.514Z,94352.19
2019-01-06T04:44:32.555Z,94357.48
2019-01-06T04:47:19.575Z,94365.19
2019-01-06T04:50:14.999Z,94365.19
2019-01-06T04:53:20.206Z,94356.34
2019-01-06T04:56:07.220Z,94359.41
2019-01-06T04:58:57.224Z,94359.41
2019-01-06T05:01:42.605Z,94358.06
2019-01-06T05:04:38.431Z,94357.32
2019-01-06T05:07:34.621Z,94375.51
2019-01-06T05:10:31.456Z,94361.63
2019-01-06T05:13:21.452Z,94354.38
2019-01-06T05:16:20.573Z,94354.38
2019-01-06T05:19:10.490Z,94364.58
2019-01-06T05:22:00.307Z,94364.74
2019-01-06T05:24:53.381Z,94364.74
2019-01-06T05:27:52.370Z,94367.73
2019-01-06T05:30:42.365Z,94355.64
2019-01-06T05:33:41.557Z,94365.22
2019-01-06T05:36:33.054Z,94363.27
2019-01-06T05:39:32.199Z,94355.30
2019-01-06T05:42:31.455Z,94363.34
2019-01-06T05:45:17.657Z,94365.86
2019-01-06T05:47:58.632Z,94369.80
2019-01-06T05:50:48.451Z,94368.48
2019-01-06T05:53:35.434Z,94367.95
2019-01-06T05:56:31.371Z,94370.34
2019-01-06T05:59:16.872Z,94370.34
2019-01-06T06:02:03.959Z,94363.22
2019-01-06T06:05:02.737Z,94385.77
2019-01-06T06:08:01.643Z,94387.68
2019-01-06T06:10:42.089Z,94382.58
2019-01-06T06:13:38.205Z,94389.52
2019-01-06T06:16:37.427Z,94389.52
2019-01-06T06:19:31.029Z,94398.95
2019-01-06T06:22:03.973Z,94395.97
2019-01-06T06:24:57.125Z,94405.65
2019-01-06T06:27:44.192Z,94405.65
2019-01-06T06:30:30.096Z,94411.48
2019-01-06T06:33:15.596Z,94413.16
2019-01-06T06:36:01.424Z,94413.69
2019-01-06T06:38:57.616Z,94424.37
2019-01-06T06:41:48.130Z,94424.37
2019-01-06T06:44:33.938Z,94411.14
2019-01-06T06:47:24.204Z,94416.98
2019-01-06T06:50:09.987Z,94415.50
2019-01-06T06:52:57.265Z,94418.92
2019-01-06T06:55:42.968Z,94414.17
2019-01-06T06:58:37.444Z,94420.26
2019-01-06T07:01:50.286Z,94421.59
2019-01-06T07:04:37.059Z,94422.16
2019-01-06T07:07:24.167Z,94422.16
2019-01-06T07:10:18.303Z,94422.28
2019-01-06T07:13:04.775Z,94421.73
2019-01-06T07:16:07.387Z,94419.48
2019-01-06T07:18:53.022Z,94419.48
2019-01-06T07:21:38.808Z,94430.01
2019-01-06T07:24:24.296Z,94413.81
2019-01-06T07:27:20.116Z,94413.81
2019-01-06T07:30:07.381Z,94399.47
2019-01-06T07:32:49.266Z,94399.47
2019-01-06T07:35:27.460Z,94413.25
2019-01-06T07:38:26.735Z,94408.64
2019-01-06T07:41:10.627Z,94406.48
2019-01-06T07:44:03.516Z,94401.80
2019-01-06T07:46:50.505Z,94401.80
2019-01-06T07:49:37.230Z,94402.88
2019-01-06T07:52:24.328Z,94411.70
2019-01-06T07:55:03.011Z,94403.00
2019-01-06T07:57:48.630Z,94401.31
2019-01-06T08:00:34.144Z,94415.73
2019-01-06T08:03:19.897Z,94409.90
2019-01-06T08:06:05.398Z,94418.46
2019-01-06T08:08:53.118Z,94422.66
2019-01-06T08:11:55.188Z,94422.55
2019-01-06T08:14:40.929Z,94437.00
2019-01-06T08:17:27.961Z,94441.91
2019-01-06T08:20:13.472Z,94440.41
2019-01-06T08:22:59.198Z,94453.47
2019-01-06T08:25:49.259Z,94460.14
2019-01-06T08:28:43.485Z,94475.91
2019-01-06T08:31:30.473Z,94471.26
2019-01-06T08:34:24.009Z,94482.73
2019-01-06T08:37:14.068Z,94486.94
2019-01-06T08:39:59.521Z,94487.50
2019-01-06T08:42:58.680Z,94461.52
2019-01-06T08:45:45.999Z,94493.02
2019-01-06T08:48:28.719Z,94487.60
2019-01-06T08:51:08.954Z,94493.69
2019-01-06T08:53:51.127Z,94497.00
2019-01-06T08:56:38.316Z,94489.07
2019-01-06T08:59:24.080Z,94474.16
2019-01-06T09:02:20.167Z,94483.13
2019-01-06T09:05:09.307Z,94491.28
2019-01-06T09:07:56.642Z,94505.06
2019-01-06T09:10:51.801Z,94488.77
2019-01-06T09:13:38.915Z,94493.78
2019-01-06T09:16:25.947Z,94484.41
2019-01-06T09:19:12.923Z,94483.45
2019-01-06T09:22:01.623Z,94481.15
2019-01-06T09:24:54.624Z,94474.09
2019-01-06T09:27:42.964Z,94472.59
2019-01-06T09:30:30.061Z,94471.44
2019-01-06T09:33:15.551Z,94485.52
2019-01-06T09:36:11.698Z,94483.69
2019-01-06T09:38:57.677Z,94478.05
2019-01-06T09:41:43.466Z,94480.73
2019-01-06T09:44:36.214Z,94490.59
2019-01-06T09:47:22.137Z,94468.73
2019-01-06T09:50:09.352Z,94490.84
2019-01-06T09:52:59.666Z,94476.92
2019-01-06T09:55:55.813Z,94478.72
2019-01-06T09:58:42.185Z,94485.05
2019-01-06T10:01:37.424Z,94480.81
2019-01-06T10:04:23.238Z,94492.08
2019-01-06T10:07:16.724Z,94490.91
2019-01-06T10:10:02.564Z,94489.48
2019-01-06T10:12:55.948Z,94494.71
2019-01-06T10:15:49.107Z,94494.05
2019-01-06T10:18:34.729Z,94493.02
2019-01-06T10:21:22.139Z,94496.30
2019-01-06T10:24:27.420Z,94489.86
2019-01-06T10:27:13.315Z,94491.12
2019-01-06T10:30:09.537Z,94476.83
2019-01-06T10:32:56.855Z,94484.27
2019-01-06T10:35:42.391Z,94484.41
2019-01-06T10:38:39.919Z,94480.97
2019-01-06T10:41:35.880Z,94495.13
2019-01-06T10:44:22.105Z,94481.30
2019-01-06T10:47:21.062Z,94494.27
2019-01-06T10:50:06.915Z,94497.27
2019-01-06T10:53:00.009Z,94497.73
2019-01-06T10:55:58.993Z,94485.13
2019-01-06T10:58:52.062Z,94496.06
2019-01-06T11:01:41.048Z,94488.86
2019-01-06T11:04:30.794Z,94499.88
2019-01-06T11:07:30.048Z,94498.98
2019-01-06T11:10:16.263Z,94496.41
2019-01-06T11:13:12.476Z,94501.98
2019-01-06T11:16:05.828Z,94505.16
2019-01-06T11:18:52.950Z,94504.02
2019-01-06T11:21:39.281Z,94506.69
2019-01-06T11:24:24.800Z,94512.17
2019-01-06T11:27:10.071Z,94511.22
2019-01-06T11:30:03.719Z,94519.05
2019-01-06T11:32:54.490Z,94510.59
2019-01-06T11:35:56.407Z,94508.89
2019-01-06T11:38:49.541Z,94519.81
2019-01-06T11:41:46.929Z,94514.48
2019-01-06T11:44:49.392Z,94512.02
2019-01-06T11:47:32.468Z,94515.55
2019-01-06T11:50:18.508Z,94506.75
2019-01-06T11:53:06.431Z,94519.52
2019-01-06T11:56:05.781Z,94512.95
2019-01-06T11:58:55.687Z,94514.02
2019-01-06T12:01:49.072Z,94524.34
2019-01-06T12:05:07.207Z,94529.81
2019-01-06T12:07:57.366Z,94531.21
2019-01-06T12:11:02.824Z,94525.14
2019-01-06T12:13:50.006Z,94527.84
2019-01-06T12:16:41.928Z,94516.48
2019-01-06T12:19:23.357Z,94523.77
2019-01-06T12:22:13.176Z,94530.69
2019-01-06T12:25:15.712Z,94534.61
2019-01-06T12:27:54.068Z,94530.81
2019-01-06T12:30:43.681Z,94527.92
2019-01-06T12:33:42.620Z,94532.53
2019-01-06T12:36:41.818Z,94533.23
2019-01-06T12:39:27.913Z,94540.94
2019-01-06T12:42:26.890Z,94544.25
2019-01-06T12:45:14.175Z,94553.48
2019-01-06T12:48:13.388Z,94560.77
2019-01-06T12:50:51.620Z,94562.00
2019-01-06T12:53:41.898Z,94567.34
2019-01-06T12:56:28.845Z,94567.41
2019-01-06T12:59:34.024Z,94567.41
2019-01-06T13:02:21.156Z,94578.17
2019-01-06T13:05:16.997Z,94574.27
2019-01-06T13:08:06.760Z,94578.43
2019-01-06T13:10:52.780Z,94580.55
2019-01-06T13:13:45.931Z,94557.61
2019-01-06T13:16:39.908Z,94559.16
2019-01-06T13:19:30.140Z,94564.66
2019-01-06T13:22:19.640Z,94573.14
2019-01-06T13:25:06.781Z,94576.13
2019-01-06T13:27:52.415Z,94574.70
2019-01-06T13:30:48.917Z,94584.11
2019-01-06T13:33:36.012Z,94589.75
2019-01-06T13:36:23.331Z,94584.25
2019-01-06T13:39:13.386Z,94585.02
2019-01-06T13:41:59.056Z,94581.13
2019-01-06T13:44:53.765Z,94580.93
2019-01-06T13:47:39.823Z,94584.34
2019-01-06T13:50:38.935Z,94581.30
2019-01-06T13:53:40.972Z,94580.97
2019-01-06T13:56:26.524Z,94586.12
2019-01-06T13:59:12.181Z,94577.94
2019-01-06T14:02:14.264Z,94577.59
2019-01-06T14:04:53.736Z,94580.39
2019-01-06T14:07:38.813Z,94577.02
2019-01-06T14:10:25.204Z,94574.20
2019-01-06T14:13:14.882Z,94585.73
2019-01-06T14:16:02.454Z,94581.42
2019-01-06T14:18:58.489Z,94581.94
2019-01-06T14:21:49.448Z,94581.94
2019-01-06T14:24:39.478Z,94587.66
2019-01-06T14:27:30.871Z,94580.62
2019-01-06T14:30:16.590Z,94591.14
2019-01-06T14:33:07.562Z,94595.53
2019-01-06T14:35:54.626Z,94597.57
2019-01-06T14:38:59.720Z,94615.23
2019-01-06T14:41:45.666Z,94606.05
2019-01-06T14:44:31.487Z,94608.66
2019-01-06T14:47:30.741Z,94604.70
2019-01-06T14:50:18.044Z,94604.39
2019-01-06T14:53:03.625Z,94610.02
2019-01-06T14:55:43.231Z,94620.23
2019-01-06T14:58:36.018Z,94620.61
2019-01-06T15:01:21.895Z,94618.84
2019-01-06T15:04:27.478Z,94623.89
2019-01-06T15:07:14.460Z,94633.26
2019-01-06T15:10:12.562Z,94624.95
2019-01-06T15:13:14.631Z,94639.15
2019-01-06T15:16:00.317Z,94635.50
2019-01-06T15:18:46.084Z,94640.41
2019-01-06T15:21:35.989Z,94653.72
2019-01-06T15:24:35.224Z,94660.81
2019-01-06T15:27:21.648Z,94659.92
2019-01-06T15:30:09.117Z,94660.98
2019-01-06T15:32:59.880Z,94661.49
2019-01-06T15:35:41.940Z,94663.20
2019-01-06T15:38:41.284Z,94668.70
2019-01-06T15:41:26.799Z,94669.56
2019-01-06T15:44:13.900Z,94670.50
2019-01-06T15:47:03.062Z,94670.12
2019-01-06T15:50:07.994Z,94678.66
2019-01-06T15:52:58.410Z,94673.57
2019-01-06T15:55:44.300Z,94667.69
2019-01-06T15:58:37.367Z,94677.95
2019-01-06T16:01:23.432Z,94683.45
2019-01-06T16:04:11.199Z,94689.05
2019-01-06T16:07:10.146Z,94696.37
2019-01-06T16:10:09.560Z,94693.53
2019-01-06T16:13:14.953Z,94685.47
2019-01-06T16:16:01.200Z,94690.16
2019-01-06T16:18:46.883Z,94696.02
2019-01-06T16:21:33.883Z,94690.47
2019-01-06T16:24:39.228Z,94687.22
2019-01-06T16:27:25.498Z,94690.58
2019-01-06T16:30:21.663Z,94678.94
2019-01-06T16:33:09.295Z,94690.48
2019-01-06T16:35:59.933Z,94683.22
2019-01-06T16:38:46.927Z,94686.26
2019-01-06T16:41:32.784Z,94695.19
2019-01-06T16:44:31.925Z,94693.89
2019-01-06T16:47:34.288Z,94685.08
2019-01-06T16:50:39.651Z,94685.55
2019-01-06T16:53:25.388Z,94697.55
2019-01-06T16:56:24.521Z,94693.05
2019-01-06T16:59:26.877Z,94701.64
2019-01-06T17:02:12.512Z,94705.06
2019-01-06T17:04:58.395Z,94719.28
2019-01-06T17:07:44.001Z,94719.87
2019-01-06T17:10:37.083Z,94720.88
2019-01-06T17:13:27.141Z,94718.66
2019-01-06T17:16:07.325Z,94722.44
2019-01-06T17:19:03.712Z,94727.40
2019-01-06T17:21:49.713Z,94727.04
2019-01-06T17:24:36.716Z,94727.41
2019-01-06T17:27:23.838Z,94730.44
2019-01-06T17:30:13.715Z,94734.64
2019-01-06T17:32:57.434Z,94737.92
2019-01-06T17:35:50.569Z,94737.71
2019-01-06T17:38:36.407Z,94740.39
2019-01-06T17:41:35.495Z,94735.97
2019-01-06T17:44:37.585Z,94742.53
2019-01-06T17:47:28.249Z,94745.55
2019-01-06T17:50:18.687Z,94752.91
2019-01-06T17:53:21.298Z,94756.83
2019-01-06T17:56:23.545Z,94763.69
2019-01-06T17:59:22.678Z,94757.61
2019-01-06T18:02:12.869Z,94755.86
2019-01-06T18:05:01.880Z,94755.47
2019-01-06T18:07:47.404Z,94766.34
2019-01-06T18:10:37.622Z,94771.22
2019-01-06T18:13:16.630Z,94769.30
2019-01-06T18:16:09.470Z,94768.77
2019-01-06T18:18:59.684Z,94764.67
2019-01-06T18:21:49.913Z,94765.20
2019-01-06T18:24:45.928Z,94762.83
2019-01-06T18:27:32.989Z,94768.98
2019-01-06T18:30:18.676Z,94766.05
2019-01-06T18:33:05.819Z,94771.16
2019-01-06T18:36:00.297Z,94759.95
2019-01-06T18:39:02.962Z,94753.73
2019-01-06T18:41:53.848Z,94761.77
2019-01-06T18:44:40.939Z,94764.05
2019-01-06T18:47:28.215Z,94764.05
2019-01-06T18:50:14.118Z,94764.81
2019-01-06T18:53:03.977Z,94766.79
2019-01-06T18:55:49.600Z,94759.81
2019-01-06T18:58:35.172Z,94769.52
2019-01-06T19:01:20.704Z,94771.00
2019-01-06T19:04:13.614Z,94770.80
2019-01-06T19:06:59.346Z,94772.73
2019-01-06T19:09:47.376Z,94791.09
2019-01-06T19:12:42.768Z,94791.09
2019-01-06T19:15:38.554Z,94791.44
2019-01-06T19:18:19.519Z,94761.14
2019-01-06T19:21:42.602Z,94804.95
2019-01-06T19:24:42.218Z,94796.03
2019-01-06T19:27:28.073Z,94802.68
2019-01-06T19:30:33.471Z,94792.06
2019-01-06T19:33:19.013Z,94791.48
2019-01-06T19:36:08.811Z,94794.88
2019-01-06T19:38:54.024Z,94790.28
2019-01-06T19:41:53.163Z,94790.99
2019-01-06T19:44:51.795Z,94794.98
2019-01-06T19:47:51.113Z,94809.26
2019-01-06T19:50:36.670Z,94798.46
2019-01-06T19:53:32.813Z,94812.09
2019-01-06T19:56:25.701Z,94808.56
2019-01-06T19:59:21.801Z,94811.40
2019-01-06T20:02:08.982Z,94808.11
2019-01-06T20:04:54.839Z,94809.23
2019-01-06T20:07:40.381Z,94810.23
2019-01-06T20:10:30.161Z,94803.45
2019-01-06T20:13:29.031Z,94815.56
2019-01-06T20:16:14.731Z,94806.62
2019-01-06T20:19:16.923Z,94807.31
2019-01-06T20:22:16.109Z,94800.51
2019-01-06T20:25:08.940Z,94809.08
2019-01-06T20:27:54.740Z,94806.09
2019-01-06T20:30:44.671Z,94800.95
2019-01-06T20:33:49.924Z,94806.48
2019-01-06T20:36:56.548Z,94813.45
2019-01-06T20:39:42.371Z,94812.32
2019-01-06T20:42:29.745Z,94815.55
2019-01-06T20:45:15.628Z,94819.55
2019-01-06T20:48:01.080Z,94811.33
2019-01-06T20:50:48.190Z,94811.33
2019-01-06T20:53:30.121Z,94810.79
2019-01-06T20:56:21.916Z,94815.70
2019-01-06T20:59:11.582Z,94806.72
2019-01-06T21:02:16.911Z,94813.72
2019-01-06T21:05:04.389Z,94816.90
2019-01-06T21:07:50.366Z,94820.69
2019-01-06T21:10:47.381Z,94807.72
2019-01-06T21:13:35.289Z,94815.95
2019-01-06T21:16:36.084Z,94812.89
2019-01-06T21:19:26.243Z,94830.38
2019-01-06T21:22:10.014Z,94817.84
2019-01-06T21:24:55.849Z,94812.95
2019-01-06T21:27:46.740Z,94823.96
2019-01-06T21:30:37.031Z,94829.25
2019-01-06T21:33:30.195Z,94818.77
2019-01-06T21:36:23.291Z,94829.66
2019-01-06T21:39:19.266Z,94818.66
2019-01-06T21:42:06.463Z,94821.91
2019-01-06T21:45:07.934Z,94831.41
2019-01-06T21:48:04.063Z,94823.06
2019-01-06T21:50:50.070Z,94840.34
2019-01-06T21:53:33.849Z,94835.81
2019-01-06T21:56:19.727Z,94836.35
2019-01-06T21:59:15.714Z,94844.30
2019-01-06T22:02:16.071Z,94840.17
2019-01-06T22:05:18.480Z,94838.27
2019-01-06T22:08:08.372Z,94843.38
2019-01-06T22:10:58.635Z,94829.16
2019-01-06T22:13:54.660Z,94826.69
2019-01-06T22:16:44.692Z,94835.60
2019-01-06T22:19:34.460Z,94829.91
2019-01-06T22:22:12.350Z,94833.53
2019-01-06T22:25:05.581Z,94837.52
2019-01-06T22:27:47.110Z,94850.61
2019-01-06T22:30:32.928Z,94849.28
2019-01-06T22:33:25.849Z,94853.45
2019-01-06T22:36:12.807Z,94852.70
2019-01-06T22:38:58.726Z,94852.69
2019-01-06T22:41:45.407Z,94854.58
2019-01-06T22:44:32.467Z,94853.82
2019-01-06T22:47:28.426Z,94859.15
2019-01-06T22:50:09.578Z,94866.72
2019-01-06T22:52:55.648Z,94866.73
2019-01-06T22:55:45.766Z,94862.92
2019-01-06T22:58:36.808Z,94857.81
2019-01-06T23:01:22.130Z,94858.00
2019-01-06T23:04:09.032Z,94854.19
2019-01-06T23:07:04.533Z,94861.22
2019-01-06T23:09:53.626Z,94865.02
2019-01-06T23:12:41.282Z,94865.95
2019-01-06T23:15:37.225Z,94867.30
2019-01-06T23:18:22.963Z,94869.02
2019-01-06T23:21:08.601Z,94859.88
2019-01-06T23:23:55.694Z,94866.53
2019-01-06T23:26:53.669Z,94857.23
2019-01-06T23:29:39.438Z,94863.31
2019-01-06T23:32:22.618Z,94860.08
2019-01-06T23:35:04.713Z,94859.31
2019-01-06T23:37:50.351Z,94861.97
2019-01-06T23:40:35.868Z,94863.09
2019-01-06T23:43:21.557Z,94871.44
2019-01-06T23:46:14.351Z,94867.09
2019-01-06T23:49:07.554Z,94883.63
2019-01-06T23:51:54.537Z,94876.98
2019-01-06T23:54:40.171Z,94886.83
2019-01-06T23:57:45.396Z,94883.04
